Time;durP1;ratioP1;P1;durP2;ratioP2;P2;SDS_P1;SDS_P2;PMS_P1;PMS_P2;Temp;Humidity;BMP_temperature;BMP_pressure;BME280_temperature;BME280_humidity;BME280_pressure;Samples;Min_cycle;Max_cycle;Signal;HPM_P1;HPM_P2
2023/05/18 00:00:00;;;;;;;;;;;9.90;99.90;;;;;;4931630;29;19938;-79
2023/05/18 00:02:26;;;;;;;;;;;9.90;99.90;;;;;;4930128;29;19989;-79
2023/05/18 00:04:53;;;;;;;;;;;9.90;99.90;;;;;;4926965;29;19927;-78
2023/05/18 00:07:21;;;;;;;;;;;9.80;99.90;;;;;;4923831;29;19939;-80
2023/05/18 00:09:48;;;;;;;;;;;9.80;99.90;;;;;;4923406;29;19933;-80
2023/05/18 00:12:15;;;;;;;;;;;9.80;99.90;;;;;;4927501;29;19990;-79
2023/05/18 00:14:42;;;;;;;;;;;9.80;99.90;;;;;;4927728;29;20462;-79
2023/05/18 00:17:09;;;;;;;;;;;9.80;99.90;;;;;;4924880;29;19931;-78
2023/05/18 00:19:36;;;;;;;;;;;9.80;99.90;;;;;;4929147;29;19935;-79
2023/05/18 00:22:03;;;;;;;;;;;9.80;99.90;;;;;;4910042;29;20298;-78
2023/05/18 00:24:31;;;;;;;;;;;9.80;99.90;;;;;;4930790;29;20382;-78
2023/05/18 00:26:58;;;;;;;;;;;9.70;99.90;;;;;;4929495;29;19997;-79
2023/05/18 00:29:24;;;;;;;;;;;9.70;99.90;;;;;;4910460;29;19978;-78
2023/05/18 00:31:51;;;;;;;;;;;9.70;99.90;;;;;;4916275;29;19931;-80
2023/05/18 00:34:18;;;;;;;;;;;9.70;99.90;;;;;;4937147;29;20382;-79
2023/05/18 00:36:48;;;;;;;;;;;9.70;99.90;;;;;;4927440;29;20018;-79
2023/05/18 00:39:14;;;;;;;;;;;9.70;99.90;;;;;;4926673;29;20069;-79
2023/05/18 00:41:43;;;;;;;;;;;9.70;99.90;;;;;;4926115;29;20025;-78
2023/05/18 00:44:09;;;;;;;;;;;9.60;99.90;;;;;;4926425;29;19966;-79
2023/05/18 00:46:36;;;;;;;;;;;9.60;99.90;;;;;;4929802;29;19939;-79
2023/05/18 00:49:03;;;;;;;;;;;9.60;99.90;;;;;;4933718;29;20483;-79
2023/05/18 00:51:32;;;;;;;;;;;9.60;99.90;;;;;;4921164;29;19935;-79
2023/05/18 00:54:00;;;;;;;;;;;9.60;99.90;;;;;;4924627;29;20773;-79
2023/05/18 00:56:27;;;;;;;;;;;9.60;99.90;;;;;;4922029;29;20009;-79
2023/05/18 00:58:56;;;;;;;;;;;9.50;99.90;;;;;;4919549;29;19931;-79
2023/05/18 01:01:27;;;;;;;;;;;9.60;99.90;;;;;;4927794;29;19934;-79
2023/05/18 01:03:55;;;;;;;;;;;9.50;99.90;;;;;;4920660;29;19945;-79
2023/05/18 01:06:24;;;;;;;;;;;9.50;99.90;;;;;;4917365;29;19931;-79
2023/05/18 01:08:52;;;;;;;;;;;9.50;99.90;;;;;;4908955;29;20066;-79
2023/05/18 01:11:24;;;;;;;;;;;9.40;99.90;;;;;;4925935;29;19985;-80
2023/05/18 01:13:54;;;;;;;;;;;9.40;99.90;;;;;;4929108;29;20017;-79
2023/05/18 01:16:26;;;;;;;;;;;9.40;99.90;;;;;;4917955;29;19930;-79
2023/05/18 01:18:59;;;;;;;;;;;9.40;99.90;;;;;;4905175;29;19966;-80
2023/05/18 01:21:42;;;;;;;;;;;9.40;99.90;;;;;;4925750;29;20447;-79
2023/05/18 01:24:20;;;;;;;;;;;9.30;99.90;;;;;;4927625;29;20394;-79
2023/05/18 01:26:49;;;;;;;;;;;9.30;99.90;;;;;;4913188;29;20102;-78
2023/05/18 01:29:17;;;;;;;;;;;9.30;99.90;;;;;;4916007;29;19927;-79
2023/05/18 01:31:44;;;;;;;;;;;9.30;99.90;;;;;;4933970;29;20693;-79
2023/05/18 01:34:11;;;;;;;;;;;9.30;99.90;;;;;;4932063;29;19930;-78
2023/05/18 01:36:38;;;;;;;;;;;9.30;99.90;;;;;;4929253;29;20025;-79
2023/05/18 01:39:05;;;;;;;;;;;9.20;99.90;;;;;;4929210;29;20041;-78
2023/05/18 01:41:33;;;;;;;;;;;9.20;99.90;;;;;;4913363;29;19927;-78
2023/05/18 01:44:05;;;;;;;;;;;9.20;99.90;;;;;;4919021;29;20017;-78
2023/05/18 01:46:35;;;;;;;;;;;9.20;99.90;;;;;;4929723;29;19931;-78
2023/05/18 01:49:05;;;;;;;;;;;9.20;99.90;;;;;;4926419;29;20221;-79
2023/05/18 01:51:33;;;;;;;;;;;9.20;99.90;;;;;;4927582;29;20018;-79
2023/05/18 01:54:03;;;;;;;;;;;9.20;99.90;;;;;;4924070;29;20063;-79
2023/05/18 01:56:30;;;;;;;;;;;9.10;99.90;;;;;;4914430;29;19941;-79
2023/05/18 01:58:57;;;;;;;;;;;9.10;99.90;;;;;;4912609;29;19927;-79
2023/05/18 02:01:26;;;;;;;;;;;9.10;99.90;;;;;;4929661;29;19958;-79
2023/05/18 02:03:53;;;;;;;;;;;9.10;99.90;;;;;;4927461;29;19927;-78
2023/05/18 02:06:20;;;;;;;;;;;9.10;99.90;;;;;;4926819;29;19926;-79
2023/05/18 02:08:48;;;;;;;;;;;9.10;99.90;;;;;;4925193;29;21765;-80
2023/05/18 02:11:15;;;;;;;;;;;9.00;99.90;;;;;;4927719;29;19931;-78
2023/05/18 02:13:41;;;;;;;;;;;9.00;99.90;;;;;;4916311;29;20164;-79
2023/05/18 02:16:09;;;;;;;;;;;9.00;99.90;;;;;;4926127;29;19970;-79
2023/05/18 02:18:37;;;;;;;;;;;9.00;99.90;;;;;;4916067;29;19934;-79
2023/05/18 02:21:04;;;;;;;;;;;9.00;99.90;;;;;;4910601;29;19931;-78
2023/05/18 02:23:32;;;;;;;;;;;9.00;99.90;;;;;;4928204;29;20015;-78
2023/05/18 02:25:59;;;;;;;;;;;9.00;99.90;;;;;;4927925;29;19938;-79
2023/05/18 02:28:26;;;;;;;;;;;9.00;99.90;;;;;;4924771;29;19934;-79
2023/05/18 02:30:53;;;;;;;;;;;8.90;99.90;;;;;;4932016;29;20341;-79
2023/05/18 02:33:25;;;;;;;;;;;8.90;99.90;;;;;;4930537;29;19931;-79
2023/05/18 02:35:54;;;;;;;;;;;8.90;99.90;;;;;;4920947;29;19941;-78
2023/05/18 02:38:21;;;;;;;;;;;8.90;99.90;;;;;;4921019;29;19977;-79
2023/05/18 02:40:48;;;;;;;;;;;8.80;99.90;;;;;;4915118;29;20312;-79
2023/05/18 02:43:16;;;;;;;;;;;8.80;99.90;;;;;;4922681;29;19931;-79
2023/05/18 02:45:44;;;;;;;;;;;8.80;99.90;;;;;;4928435;29;19950;-78
2023/05/18 02:48:11;;;;;;;;;;;8.80;99.90;;;;;;4926742;29;20026;-79
2023/05/18 02:50:37;;;;;;;;;;;8.80;99.90;;;;;;4915679;29;19926;-78
2023/05/18 02:53:06;;;;;;;;;;;8.80;99.90;;;;;;4925848;29;20029;-78
2023/05/18 02:55:33;;;;;;;;;;;8.80;99.90;;;;;;4925238;29;19935;-78
2023/05/18 02:58:12;;;;;;;;;;;8.80;99.90;;;;;;4913708;29;19934;-79
2023/05/18 03:00:58;;;;;;;;;;;8.70;99.90;;;;;;4916290;29;19974;-78
2023/05/18 03:03:26;;;;;;;;;;;8.70;99.90;;;;;;4924232;29;19927;-78
2023/05/18 03:05:53;;;;;;;;;;;8.70;99.90;;;;;;4917656;29;19934;-78
2023/05/18 03:08:22;;;;;;;;;;;8.70;99.90;;;;;;4929521;29;19931;-79
2023/05/18 03:10:49;;;;;;;;;;;8.70;99.90;;;;;;4928422;29;19931;-78
2023/05/18 03:13:16;;;;;;;;;;;8.60;99.90;;;;;;4927431;29;20381;-78
2023/05/18 03:15:45;;;;;;;;;;;8.70;99.90;;;;;;4928385;29;19926;-79
2023/05/18 03:18:12;;;;;;;;;;;8.60;99.90;;;;;;4925378;29;20030;-79
2023/05/18 03:20:39;;;;;;;;;;;8.60;99.90;;;;;;4927907;29;20646;-78
2023/05/18 03:23:07;;;;;;;;;;;8.60;99.90;;;;;;4922058;29;19966;-79
2023/05/18 03:25:37;;;;;;;;;;;8.60;99.90;;;;;;4918931;29;22617;-78
2023/05/18 03:28:04;;;;;;;;;;;8.60;99.90;;;;;;4933330;29;19954;-79
2023/05/18 03:30:32;;;;;;;;;;;8.60;99.90;;;;;;4939282;29;19974;-79
2023/05/18 03:32:59;;;;;;;;;;;8.50;99.90;;;;;;4931306;29;20317;-79
2023/05/18 03:35:26;;;;;;;;;;;8.50;99.90;;;;;;4932808;29;19926;-78
2023/05/18 03:37:53;;;;;;;;;;;8.50;99.90;;;;;;4931049;28;19937;-79
2023/05/18 03:40:20;;;;;;;;;;;8.50;99.90;;;;;;4920895;29;20397;-79
2023/05/18 03:42:49;;;;;;;;;;;8.50;99.90;;;;;;4921869;29;19931;-78
2023/05/18 03:45:17;;;;;;;;;;;8.50;99.90;;;;;;4915072;29;19934;-79
2023/05/18 03:47:46;;;;;;;;;;;8.50;99.90;;;;;;4926540;29;19933;-79
2023/05/18 03:50:13;;;;;;;;;;;8.40;99.90;;;;;;4930495;29;19937;-79
2023/05/18 03:52:40;;;;;;;;;;;8.40;99.90;;;;;;4928009;29;19978;-78
2023/05/18 03:55:08;;;;;;;;;;;8.40;99.90;;;;;;4930691;29;19946;-79
2023/05/18 03:57:34;;;;;;;;;;;8.40;99.90;;;;;;4930521;29;19963;-78
2023/05/18 04:00:07;;;;;;;;;;;8.40;99.90;;;;;;4919155;29;19933;-80
2023/05/18 04:02:43;;;;;;;;;;;8.30;99.90;;;;;;4928157;29;20046;-79
2023/05/18 04:05:11;;;;;;;;;;;8.30;99.90;;;;;;4915525;29;20350;-78
2023/05/18 04:07:42;;;;;;;;;;;8.30;99.90;;;;;;4927672;29;19997;-78
2023/05/18 04:10:10;;;;;;;;;;;8.30;99.90;;;;;;4926098;29;19927;-79
2023/05/18 04:12:37;;;;;;;;;;;8.30;99.90;;;;;;4928831;29;19954;-78
2023/05/18 04:15:06;;;;;;;;;;;8.20;99.90;;;;;;4917022;29;19927;-79
2023/05/18 04:17:34;;;;;;;;;;;8.30;99.90;;;;;;4933008;29;19978;-78
2023/05/18 04:20:04;;;;;;;;;;;8.30;99.90;;;;;;4917960;29;20068;-78
2023/05/18 04:22:31;;;;;;;;;;;8.30;99.90;;;;;;4915842;29;19934;-79
2023/05/18 04:25:00;;;;;;;;;;;8.30;99.90;;;;;;4918471;29;19927;-78
2023/05/18 04:27:28;;;;;;;;;;;8.20;99.90;;;;;;4927241;29;19934;-79
2023/05/18 04:29:55;;;;;;;;;;;8.20;99.90;;;;;;4913766;29;20013;-79
2023/05/18 04:32:27;;;;;;;;;;;8.20;99.90;;;;;;4929937;29;19927;-78
2023/05/18 04:34:57;;;;;;;;;;;8.20;99.90;;;;;;4921183;29;20531;-79
2023/05/18 04:37:24;;;;;;;;;;;8.20;99.90;;;;;;4930385;29;20420;-78
2023/05/18 04:39:52;;;;;;;;;;;8.20;99.90;;;;;;4929951;29;20424;-78
2023/05/18 04:42:21;;;;;;;;;;;8.20;99.90;;;;;;4934216;29;19931;-79
2023/05/18 04:44:51;;;;;;;;;;;8.20;99.90;;;;;;4918761;29;19930;-79
2023/05/18 04:47:20;;;;;;;;;;;8.10;99.90;;;;;;4926186;29;19927;-79
2023/05/18 04:49:51;;;;;;;;;;;8.10;99.90;;;;;;4918088;29;20297;-79
2023/05/18 04:52:18;;;;;;;;;;;8.20;99.90;;;;;;4915054;29;19927;-79
2023/05/18 04:54:45;;;;;;;;;;;8.20;99.90;;;;;;4913124;29;19931;-79
2023/05/18 04:57:11;;;;;;;;;;;8.10;99.90;;;;;;4924853;29;19961;-79
2023/05/18 04:59:40;;;;;;;;;;;8.10;99.90;;;;;;4929354;29;20405;-78
2023/05/18 05:02:07;;;;;;;;;;;8.10;99.90;;;;;;4913631;29;19927;-79
2023/05/18 05:04:34;;;;;;;;;;;8.10;99.90;;;;;;4929371;29;20361;-79
2023/05/18 05:07:04;;;;;;;;;;;8.10;99.90;;;;;;4907962;29;20354;-79
2023/05/18 05:09:30;;;;;;;;;;;8.10;99.90;;;;;;4926624;29;20021;-79
2023/05/18 05:11:57;;;;;;;;;;;8.10;99.90;;;;;;4939293;29;19941;-79
2023/05/18 05:14:24;;;;;;;;;;;8.10;99.90;;;;;;4924511;28;19934;-79
2023/05/18 05:16:51;;;;;;;;;;;8.10;99.90;;;;;;4931058;29;20408;-79
2023/05/18 05:19:18;;;;;;;;;;;8.10;99.90;;;;;;4933181;29;19982;-79
2023/05/18 05:21:45;;;;;;;;;;;8.10;99.90;;;;;;4932311;29;19930;-78
2023/05/18 05:24:13;;;;;;;;;;;8.10;99.90;;;;;;4913147;29;19970;-79
2023/05/18 05:26:40;;;;;;;;;;;8.10;99.90;;;;;;4930100;29;20408;-79
2023/05/18 05:29:07;;;;;;;;;;;8.10;99.90;;;;;;4914299;29;19967;-79
2023/05/18 05:31:34;;;;;;;;;;;8.10;99.90;;;;;;4932878;28;19933;-79
2023/05/18 05:34:01;;;;;;;;;;;8.00;99.90;;;;;;4931431;29;19969;-79
2023/05/18 05:36:28;;;;;;;;;;;8.10;99.90;;;;;;4936113;29;19978;-79
2023/05/18 05:38:55;;;;;;;;;;;8.10;99.90;;;;;;4914571;29;20726;-79
2023/05/18 05:41:24;;;;;;;;;;;8.10;99.90;;;;;;4920215;29;19935;-79
2023/05/18 05:43:50;;;;;;;;;;;8.10;99.90;;;;;;4930836;29;19968;-78
2023/05/18 05:46:17;;;;;;;;;;;8.10;99.90;;;;;;4922508;29;19962;-79
2023/05/18 05:48:44;;;;;;;;;;;8.10;99.90;;;;;;4929758;29;19986;-79
2023/05/18 05:51:11;;;;;;;;;;;8.10;99.90;;;;;;4912200;29;19934;-79
2023/05/18 05:53:38;;;;;;;;;;;8.10;99.90;;;;;;4930194;29;19927;-79
2023/05/18 05:56:06;;;;;;;;;;;8.10;99.90;;;;;;4930444;29;19927;-79
2023/05/18 05:58:37;;;;;;;;;;;8.20;99.90;;;;;;4910632;29;19934;-79
2023/05/18 06:01:04;;;;;;;;;;;8.10;99.90;;;;;;4914505;29;19969;-79
2023/05/18 06:03:31;;;;;;;;;;;8.20;99.90;;;;;;4921125;28;22140;-79
2023/05/18 06:06:01;;;;;;;;;;;8.20;99.90;;;;;;4916485;29;19930;-78
2023/05/18 06:08:29;;;;;;;;;;;8.20;99.90;;;;;;4913795;29;20401;-79
2023/05/18 06:10:57;;;;;;;;;;;8.20;99.90;;;;;;4924598;29;19927;-79
2023/05/18 06:13:24;;;;;;;;;;;8.20;99.90;;;;;;4920599;29;19937;-78
2023/05/18 06:15:55;;;;;;;;;;;8.20;99.90;;;;;;4934218;29;20428;-79
2023/05/18 06:18:24;;;;;;;;;;;8.20;99.90;;;;;;4930570;29;20353;-78
2023/05/18 06:20:53;;;;;;;;;;;8.30;99.90;;;;;;4914254;29;19931;-79
2023/05/18 06:23:22;;;;;;;;;;;8.30;99.90;;;;;;4926835;29;19933;-79
2023/05/18 06:26:01;;;;;;;;;;;8.30;99.90;;;;;;4927215;29;19930;-79
2023/05/18 06:28:34;;;;;;;;;;;8.30;99.90;;;;;;4927671;29;20626;-79
2023/05/18 06:31:35;;;;;;;;;;;8.40;99.90;;;;;;4900020;29;20354;-80
2023/05/18 06:34:10;;;;;;;;;;;8.40;99.90;;;;;;4928633;29;19935;-79
2023/05/18 06:36:37;;;;;;;;;;;8.40;99.90;;;;;;4927431;29;20402;-78
2023/05/18 06:39:05;;;;;;;;;;;8.40;99.90;;;;;;4930939;29;20312;-79
2023/05/18 06:41:33;;;;;;;;;;;8.40;99.90;;;;;;4915817;29;20011;-80
2023/05/18 06:44:01;;;;;;;;;;;8.50;99.90;;;;;;4931194;29;20410;-79
2023/05/18 06:46:36;;;;;;;;;;;8.50;99.90;;;;;;4936098;29;19934;-79
2023/05/18 06:49:11;;;;;;;;;;;8.50;99.90;;;;;;4936786;29;20394;-78
2023/05/18 06:51:38;;;;;;;;;;;8.50;99.90;;;;;;4917846;29;19942;-79
2023/05/18 06:54:06;;;;;;;;;;;8.60;99.90;;;;;;4913347;29;19982;-78
2023/05/18 06:56:33;;;;;;;;;;;8.60;99.90;;;;;;4929562;29;19931;-79
2023/05/18 06:59:00;;;;;;;;;;;8.60;99.90;;;;;;4921166;29;19941;-79
2023/05/18 07:01:26;;;;;;;;;;;8.60;99.90;;;;;;4932690;29;20293;-79
2023/05/18 07:03:58;;;;;;;;;;;8.70;99.90;;;;;;4919628;29;20291;-80
2023/05/18 07:06:25;;;;;;;;;;;8.70;99.90;;;;;;4932308;29;20466;-79
2023/05/18 07:08:52;;;;;;;;;;;8.70;99.90;;;;;;4931479;29;19930;-79
2023/05/18 07:11:27;;;;;;;;;;;8.70;99.90;;;;;;4919331;29;20432;-77
2023/05/18 07:13:54;;;;;;;;;;;8.80;99.90;;;;;;4934839;29;19934;-77
2023/05/18 07:16:21;;;;;;;;;;;8.80;99.90;;;;;;4930214;29;20357;-78
2023/05/18 07:18:48;;;;;;;;;;;8.80;99.90;;;;;;4926631;29;20017;-77
2023/05/18 07:21:16;;;;;;;;;;;8.80;99.90;;;;;;4923223;29;20017;-76
2023/05/18 07:23:43;;;;;;;;;;;8.80;99.90;;;;;;4931593;29;24014;-78
2023/05/18 07:26:10;;;;;;;;;;;8.90;99.90;;;;;;4929608;29;19960;-78
2023/05/18 07:28:37;;;;;;;;;;;8.90;99.90;;;;;;4908771;29;20370;-77
2023/05/18 07:31:04;;;;;;;;;;;8.90;99.90;;;;;;4915433;28;19948;-77
2023/05/18 07:33:31;;;;;;;;;;;9.00;99.90;;;;;;4923392;29;19931;-78
2023/05/18 07:35:58;;;;;;;;;;;9.00;99.90;;;;;;4936144;29;20009;-77
2023/05/18 07:38:27;;;;;;;;;;;9.00;99.90;;;;;;4933211;29;19933;-77
2023/05/18 07:40:54;;;;;;;;;;;9.00;99.90;;;;;;4934817;29;19927;-77
2023/05/18 07:43:20;;;;;;;;;;;9.00;99.90;;;;;;4924451;29;19940;-77
2023/05/18 07:45:49;;;;;;;;;;;9.00;99.90;;;;;;4925685;29;20293;-77
2023/05/18 07:48:16;;;;;;;;;;;9.10;99.90;;;;;;4932387;29;19931;-77
2023/05/18 07:50:43;;;;;;;;;;;9.10;99.90;;;;;;4934265;29;19926;-78
2023/05/18 07:53:10;;;;;;;;;;;9.10;99.90;;;;;;4933585;29;20453;-78
2023/05/18 07:55:40;;;;;;;;;;;9.10;99.90;;;;;;4924982;29;19931;-77
2023/05/18 07:58:08;;;;;;;;;;;9.20;99.90;;;;;;4930259;29;19926;-77
2023/05/18 08:00:35;;;;;;;;;;;9.20;99.90;;;;;;4910479;29;19939;-78
2023/05/18 08:03:01;;;;;;;;;;;9.20;99.90;;;;;;4928674;29;19931;-77
2023/05/18 08:05:28;;;;;;;;;;;9.20;99.90;;;;;;4926165;29;19930;-77
2023/05/18 08:07:55;;;;;;;;;;;9.20;99.90;;;;;;4924422;29;20006;-78
2023/05/18 08:10:22;;;;;;;;;;;9.30;99.90;;;;;;4907757;29;19974;-77
2023/05/18 08:12:50;;;;;;;;;;;9.30;99.90;;;;;;4927326;29;20184;-77
2023/05/18 08:15:17;;;;;;;;;;;9.30;99.90;;;;;;4917244;29;19935;-77
2023/05/18 08:17:44;;;;;;;;;;;9.30;99.90;;;;;;4925328;29;20021;-77
2023/05/18 08:20:11;;;;;;;;;;;9.30;99.90;;;;;;4923260;29;19974;-78
2023/05/18 08:22:38;;;;;;;;;;;9.30;99.90;;;;;;4902749;29;19981;-78
2023/05/18 08:25:06;;;;;;;;;;;9.40;99.90;;;;;;4919069;29;19927;-77
2023/05/18 08:27:34;;;;;;;;;;;9.40;99.90;;;;;;4930406;29;19959;-77
2023/05/18 08:30:03;;;;;;;;;;;9.40;99.90;;;;;;4925942;29;20025;-77
2023/05/18 08:32:30;;;;;;;;;;;9.40;99.90;;;;;;4928434;29;19939;-77
2023/05/18 08:34:57;;;;;;;;;;;9.40;99.90;;;;;;4926700;29;20021;-77
2023/05/18 08:37:28;;;;;;;;;;;9.50;99.90;;;;;;4914448;29;19931;-77
2023/05/18 08:39:55;;;;;;;;;;;9.50;99.90;;;;;;4929349;29;19947;-77
2023/05/18 08:42:23;;;;;;;;;;;9.50;99.90;;;;;;4926927;29;19966;-78
2023/05/18 08:44:55;;;;;;;;;;;9.60;99.90;;;;;;4929401;29;20469;-77
2023/05/18 08:47:25;;;;;;;;;;;9.60;99.90;;;;;;4923778;29;20489;-75
2023/05/18 08:49:55;;;;;;;;;;;9.50;99.90;;;;;;4927536;29;20461;-78
2023/05/18 08:52:25;;;;;;;;;;;9.60;99.90;;;;;;4902515;29;20006;-77
2023/05/18 08:54:53;;;;;;;;;;;9.60;99.90;;;;;;4915922;29;19979;-77
2023/05/18 08:57:23;;;;;;;;;;;9.60;99.90;;;;;;4925886;29;20013;-77
2023/05/18 08:59:52;;;;;;;;;;;9.60;99.90;;;;;;4917692;29;20289;-77
2023/05/18 09:02:19;;;;;;;;;;;9.70;99.90;;;;;;4930565;29;19927;-77
2023/05/18 09:04:47;;;;;;;;;;;9.70;99.90;;;;;;4931998;29;19926;-77
2023/05/18 09:07:15;;;;;;;;;;;9.70;99.90;;;;;;4929309;29;20017;-77
2023/05/18 09:09:44;;;;;;;;;;;9.70;99.90;;;;;;4927634;29;20017;-77
2023/05/18 09:12:15;;;;;;;;;;;9.70;99.90;;;;;;4930626;29;19947;-78
2023/05/18 09:14:46;;;;;;;;;;;9.80;99.90;;;;;;4909210;29;20434;-78
2023/05/18 09:17:13;;;;;;;;;;;9.80;99.90;;;;;;4912342;29;19934;-77
2023/05/18 09:19:40;;;;;;;;;;;9.80;99.90;;;;;;4908656;29;20049;-77
2023/05/18 09:22:08;;;;;;;;;;;9.80;99.90;;;;;;4915955;29;19937;-76
2023/05/18 09:24:36;;;;;;;;;;;9.80;99.90;;;;;;4906756;29;19935;-78
2023/05/18 09:27:04;;;;;;;;;;;9.90;99.90;;;;;;4931000;29;20059;-79
2023/05/18 09:29:32;;;;;;;;;;;9.80;99.90;;;;;;4925941;29;19926;-78
2023/05/18 09:32:02;;;;;;;;;;;9.90;99.90;;;;;;4928365;29;20017;-78
2023/05/18 09:34:38;;;;;;;;;;;9.90;99.90;;;;;;4927279;29;19926;-79
2023/05/18 09:37:05;;;;;;;;;;;10.00;99.90;;;;;;4927037;29;19934;-79
2023/05/18 09:39:34;;;;;;;;;;;10.00;99.90;;;;;;4927084;29;20403;-76
2023/05/18 09:42:02;;;;;;;;;;;10.00;99.90;;;;;;4924047;29;19931;-76
2023/05/18 09:44:31;;;;;;;;;;;10.00;99.90;;;;;;4926047;29;19927;-76
2023/05/18 09:46:58;;;;;;;;;;;10.10;99.90;;;;;;4926528;29;20342;-76
2023/05/18 09:49:27;;;;;;;;;;;10.10;99.90;;;;;;4917029;29;20428;-76
2023/05/18 09:51:54;;;;;;;;;;;10.00;99.90;;;;;;4925912;29;19927;-76
2023/05/18 09:54:21;;;;;;;;;;;10.10;99.90;;;;;;4927495;29;19931;-78
2023/05/18 09:56:49;;;;;;;;;;;10.10;99.90;;;;;;4938883;29;19927;-76
2023/05/18 09:59:16;;;;;;;;;;;10.10;99.90;;;;;;4928000;29;20029;-77
2023/05/18 10:01:55;;;;;;;;;;;10.20;99.90;;;;;;4915301;29;20370;-77
2023/05/18 10:04:22;;;;;;;;;;;10.10;99.90;;;;;;4929428;29;19946;-77
2023/05/18 10:06:49;;;;;;;;;;;10.20;99.90;;;;;;4922013;29;19927;-77
2023/05/18 10:09:16;;;;;;;;;;;10.20;99.90;;;;;;4916703;29;19938;-78
2023/05/18 10:11:43;;;;;;;;;;;10.20;99.90;;;;;;4928950;29;20361;-77
2023/05/18 10:14:12;;;;;;;;;;;10.20;99.90;;;;;;4926614;28;19998;-75
2023/05/18 10:16:40;;;;;;;;;;;10.20;99.90;;;;;;4908940;29;20421;-77
2023/05/18 10:19:08;;;;;;;;;;;10.30;99.90;;;;;;4924185;29;19949;-77
2023/05/18 10:21:37;;;;;;;;;;;10.50;99.90;;;;;;4919566;29;20032;-78
2023/05/18 10:24:07;;;;;;;;;;;10.80;99.90;;;;;;4922103;29;19927;-78
2023/05/18 10:26:36;;;;;;;;;;;10.70;99.90;;;;;;4928169;29;19926;-78
2023/05/18 10:29:04;;;;;;;;;;;10.70;99.90;;;;;;4930038;29;19927;-78
2023/05/18 10:31:36;;;;;;;;;;;10.60;99.90;;;;;;4933801;29;20361;-77
2023/05/18 10:34:03;;;;;;;;;;;10.60;99.90;;;;;;4928214;29;19941;-78
2023/05/18 10:36:31;;;;;;;;;;;10.60;99.90;;;;;;4930733;29;19935;-78
2023/05/18 10:38:59;;;;;;;;;;;10.50;99.90;;;;;;4927399;29;19930;-78
2023/05/18 10:41:27;;;;;;;;;;;10.50;99.90;;;;;;4922386;29;19927;-78
2023/05/18 10:44:00;;;;;;;;;;;10.60;99.90;;;;;;4927037;29;19974;-78
2023/05/18 10:46:27;;;;;;;;;;;10.50;99.90;;;;;;4932907;29;19930;-76
2023/05/18 10:48:57;;;;;;;;;;;10.60;99.90;;;;;;4927699;29;19990;-78
2023/05/18 10:51:24;;;;;;;;;;;10.60;99.90;;;;;;4928487;29;19926;-78
2023/05/18 10:53:51;;;;;;;;;;;10.60;99.90;;;;;;4927673;29;19955;-78
2023/05/18 10:56:18;;;;;;;;;;;10.60;99.90;;;;;;4926683;29;20140;-77
2023/05/18 10:58:45;;;;;;;;;;;10.60;99.90;;;;;;4923514;29;19930;-78
2023/05/18 11:01:12;;;;;;;;;;;10.60;99.90;;;;;;4929179;29;19930;-77
2023/05/18 11:03:40;;;;;;;;;;;10.70;99.90;;;;;;4913607;29;19970;-77
2023/05/18 11:06:09;;;;;;;;;;;10.70;99.90;;;;;;4930131;29;19941;-78
2023/05/18 11:08:42;;;;;;;;;;;10.70;99.90;;;;;;4926597;29;19935;-78
2023/05/18 11:11:09;;;;;;;;;;;10.70;99.90;;;;;;4929449;29;19957;-78
2023/05/18 11:13:38;;;;;;;;;;;10.70;99.90;;;;;;4931659;29;19973;-77
2023/05/18 11:16:06;;;;;;;;;;;10.80;99.90;;;;;;4922643;28;19927;-78
2023/05/18 11:18:37;;;;;;;;;;;10.80;99.90;;;;;;4926708;29;20321;-77
2023/05/18 11:21:17;;;;;;;;;;;10.80;99.90;;;;;;4922699;29;19950;-77
2023/05/18 11:24:08;;;;;;;;;;;10.80;99.90;;;;;;4931619;29;20317;-78
2023/05/18 11:26:38;;;;;;;;;;;10.80;99.90;;;;;;4908409;29;19934;-78
2023/05/18 11:29:15;;;;;;;;;;;10.80;99.90;;;;;;4929931;29;19931;-78
2023/05/18 11:31:46;;;;;;;;;;;10.90;99.90;;;;;;4931327;28;20429;-78
2023/05/18 11:34:31;;;;;;;;;;;10.90;99.90;;;;;;4926783;29;19927;-78
2023/05/18 11:36:59;;;;;;;;;;;10.90;99.90;;;;;;4929339;29;19931;-78
2023/05/18 11:39:27;;;;;;;;;;;10.90;99.90;;;;;;4931392;29;19927;-77
2023/05/18 11:42:00;;;;;;;;;;;11.00;99.90;;;;;;4930721;29;19939;-78
2023/05/18 11:44:28;;;;;;;;;;;11.00;99.90;;;;;;4936174;29;19930;-78
2023/05/18 11:47:02;;;;;;;;;;;11.00;99.90;;;;;;4934068;29;19926;-78
2023/05/18 11:49:30;;;;;;;;;;;11.00;99.90;;;;;;4932661;29;19942;-78
2023/05/18 11:51:57;;;;;;;;;;;11.00;99.90;;;;;;4932532;29;20391;-78
2023/05/18 11:54:24;;;;;;;;;;;11.00;99.90;;;;;;4929700;29;19956;-78
2023/05/18 11:56:53;;;;;;;;;;;11.00;99.90;;;;;;4922494;29;19950;-78
2023/05/18 11:59:30;;;;;;;;;;;11.10;99.90;;;;;;4931963;29;20013;-78
2023/05/18 12:01:57;;;;;;;;;;;11.10;99.90;;;;;;4929788;29;19930;-78
2023/05/18 12:04:24;;;;;;;;;;;11.10;99.90;;;;;;4930182;29;20286;-78
2023/05/18 12:06:53;;;;;;;;;;;11.10;99.90;;;;;;4930579;29;20493;-78
2023/05/18 12:09:20;;;;;;;;;;;11.10;99.90;;;;;;4928824;29;19926;-77
2023/05/18 12:11:47;;;;;;;;;;;11.20;99.90;;;;;;4929882;29;20681;-78
2023/05/18 12:14:15;;;;;;;;;;;11.20;99.90;;;;;;4929564;29;20433;-78
2023/05/18 12:16:43;;;;;;;;;;;11.20;99.90;;;;;;4913501;29;20330;-78
2023/05/18 12:19:10;;;;;;;;;;;11.20;99.90;;;;;;4907402;29;19933;-77
2023/05/18 12:21:38;;;;;;;;;;;;;;;;;;4928930;29;20001;-78
2023/05/18 12:24:05;;;;;;;;;;;11.30;99.90;;;;;;4913211;29;19957;-78
2023/05/18 12:26:32;;;;;;;;;;;11.30;99.90;;;;;;4931047;29;19926;-78
2023/05/18 12:29:00;;;;;;;;;;;11.30;99.90;;;;;;4913536;29;21968;-78
2023/05/18 12:31:30;;;;;;;;;;;11.30;99.90;;;;;;4924813;29;20465;-78
2023/05/18 12:33:57;;;;;;;;;;;11.30;99.90;;;;;;4929657;29;19931;-78
2023/05/18 12:36:24;;;;;;;;;;;11.40;99.90;;;;;;4926888;29;20488;-77
2023/05/18 12:38:51;;;;;;;;;;;11.40;99.90;;;;;;4916122;29;20267;-78
2023/05/18 12:41:22;;;;;;;;;;;11.40;99.90;;;;;;4927403;29;19974;-78
2023/05/18 12:43:50;;;;;;;;;;;11.40;99.90;;;;;;4917191;29;19965;-78
2023/05/18 12:46:17;;;;;;;;;;;11.40;99.90;;;;;;4931244;29;19933;-78
2023/05/18 12:48:55;;;;;;;;;;;11.50;99.90;;;;;;4916579;29;19926;-78
2023/05/18 12:51:22;;;;;;;;;;;11.50;99.90;;;;;;4913743;29;20017;-78
2023/05/18 12:53:49;;;;;;;;;;;11.50;99.90;;;;;;4925266;29;20465;-78
2023/05/18 12:56:17;;;;;;;;;;;11.50;99.90;;;;;;4927466;29;20434;-78
2023/05/18 12:58:54;;;;;;;;;;;11.60;99.90;;;;;;4908842;29;20309;-78
2023/05/18 13:01:23;;;;;;;;;;;11.60;99.90;;;;;;4925636;29;19931;-78
2023/05/18 13:03:56;;;;;;;;;;;11.60;99.90;;;;;;4930052;29;19982;-78
2023/05/18 13:06:23;;;;;;;;;;;11.70;99.90;;;;;;4930714;29;19962;-78
2023/05/18 13:08:53;;;;;;;;;;;11.70;99.90;;;;;;4926280;29;19931;-78
2023/05/18 13:11:23;;;;;;;;;;;11.70;99.90;;;;;;4931915;29;20396;-78
2023/05/18 13:13:59;;;;;;;;;;;11.70;99.90;;;;;;4926875;29;19939;-78
2023/05/18 13:16:28;;;;;;;;;;;11.70;99.90;;;;;;4925924;29;20202;-78
2023/05/18 13:18:57;;;;;;;;;;;11.80;99.90;;;;;;4932535;29;19949;-78
2023/05/18 13:21:24;;;;;;;;;;;11.80;99.90;;;;;;4929810;28;20002;-78
2023/05/18 13:23:51;;;;;;;;;;;11.80;99.90;;;;;;4929545;29;19933;-78
2023/05/18 13:26:18;;;;;;;;;;;11.80;99.90;;;;;;4928249;29;19926;-78
2023/05/18 13:28:46;;;;;;;;;;;11.80;99.90;;;;;;4927653;29;19974;-78
2023/05/18 13:31:13;;;;;;;;;;;11.80;99.90;;;;;;4927127;29;19997;-78
2023/05/18 13:33:40;;;;;;;;;;;11.90;99.90;;;;;;4928683;29;19954;-77
2023/05/18 13:36:10;;;;;;;;;;;11.90;99.90;;;;;;4919721;29;19941;-78
2023/05/18 13:38:37;;;;;;;;;;;11.90;99.90;;;;;;4926022;29;21019;-78
2023/05/18 13:41:04;;;;;;;;;;;11.90;99.90;;;;;;4914405;29;19969;-78
2023/05/18 13:43:33;;;;;;;;;;;11.90;99.90;;;;;;4928920;29;19935;-78
2023/05/18 13:46:00;;;;;;;;;;;11.90;99.90;;;;;;4929940;29;19926;-78
2023/05/18 13:48:28;;;;;;;;;;;11.90;99.90;;;;;;4929578;29;19931;-78
2023/05/18 13:50:55;;;;;;;;;;;12.00;99.90;;;;;;4927845;29;19934;-78
2023/05/18 13:53:24;;;;;;;;;;;12.00;99.90;;;;;;4921716;29;21632;-77
2023/05/18 13:55:51;;;;;;;;;;;12.00;99.90;;;;;;4932300;29;19926;-77
2023/05/18 13:58:18;;;;;;;;;;;12.00;99.90;;;;;;4931005;29;19974;-78
2023/05/18 14:00:45;;;;;;;;;;;12.00;99.90;;;;;;4931283;29;19977;-78
2023/05/18 14:03:13;;;;;;;;;;;12.10;99.90;;;;;;4928759;29;19982;-78
2023/05/18 14:05:40;;;;;;;;;;;12.00;99.90;;;;;;4927487;29;19931;-78
2023/05/18 14:08:07;;;;;;;;;;;12.10;99.90;;;;;;4927802;29;20021;-78
2023/05/18 14:10:35;;;;;;;;;;;12.10;99.90;;;;;;4927272;29;19926;-78
2023/05/18 14:13:02;;;;;;;;;;;12.10;99.90;;;;;;4930051;29;19982;-78
2023/05/18 14:15:29;;;;;;;;;;;12.10;99.90;;;;;;4925411;29;19954;-78
2023/05/18 14:17:56;;;;;;;;;;;12.10;99.90;;;;;;4911943;29;19970;-78
2023/05/18 14:20:23;;;;;;;;;;;12.10;99.90;;;;;;4915708;29;19970;-78
2023/05/18 14:22:50;;;;;;;;;;;12.10;99.90;;;;;;4924369;29;19926;-78
2023/05/18 14:25:17;;;;;;;;;;;12.10;99.90;;;;;;4929249;29;20021;-78
2023/05/18 14:27:45;;;;;;;;;;;12.10;99.90;;;;;;4907018;29;19939;-78
2023/05/18 14:30:12;;;;;;;;;;;12.10;99.90;;;;;;4913789;29;19958;-78
2023/05/18 14:32:39;;;;;;;;;;;12.20;99.90;;;;;;4927912;29;19927;-78